createdAt,value
2019-01-18T00:00:15.685Z,0.00
2019-01-18T00:01:15.698Z,0.00
2019-01-18T00:02:15.663Z,0.00
2019-01-18T00:03:15.656Z,0.00
2019-01-18T00:04:15.639Z,0.00
2019-01-18T00:05:15.631Z,0.00
2019-01-18T00:06:15.642Z,0.00
2019-01-18T00:07:15.608Z,0.00
2019-01-18T00:08:15.594Z,0.00
2019-01-18T00:09:15.584Z,0.00
2019-01-18T00:10:15.573Z,0.00
2019-01-18T00:11:15.587Z,0.00
2019-01-18T00:12:15.551Z,0.00
2019-01-18T00:13:15.542Z,0.00
2019-01-18T00:14:15.527Z,0.00
2019-01-18T00:15:15.516Z,0.00
2019-01-18T00:16:15.533Z,0.00
2019-01-18T00:17:15.495Z,0.00
2019-01-18T00:18:15.484Z,0.00
2019-01-18T00:19:15.471Z,0.00
2019-01-18T00:20:15.462Z,0.00
2019-01-18T00:21:15.451Z,0.00
2019-01-18T00:22:15.463Z,0.00
2019-01-18T00:23:15.430Z,0.00
2019-01-18T00:24:15.419Z,0.00
2019-01-18T00:25:15.408Z,0.00
2019-01-18T00:26:15.397Z,0.00
2019-01-18T00:27:15.407Z,0.00
2019-01-18T00:28:15.371Z,0.00
2019-01-18T00:29:15.359Z,0.00
2019-01-18T00:30:15.351Z,0.00
2019-01-18T00:31:15.340Z,0.00
2019-01-18T00:32:15.351Z,0.00
2019-01-18T00:33:15.316Z,0.00
2019-01-18T00:34:15.306Z,0.00
2019-01-18T00:35:15.293Z,0.00
2019-01-18T00:36:15.283Z,0.00
2019-01-18T00:37:15.295Z,0.00
2019-01-18T00:38:15.263Z,0.00
2019-01-18T00:39:15.248Z,0.00
2019-01-18T00:40:15.237Z,0.00
2019-01-18T00:41:15.226Z,0.00
2019-01-18T00:42:15.239Z,0.00
2019-01-18T00:43:15.206Z,0.00
2019-01-18T00:44:15.195Z,0.00
2019-01-18T00:45:15.182Z,0.00
2019-01-18T00:46:15.170Z,0.00
2019-01-18T00:47:15.184Z,0.00
2019-01-18T00:48:15.149Z,0.00
2019-01-18T00:49:15.139Z,0.00
2019-01-18T00:50:15.126Z,0.00
2019-01-18T00:51:15.119Z,0.00
2019-01-18T00:52:15.135Z,0.00
2019-01-18T00:53:15.092Z,0.00
2019-01-18T00:54:15.082Z,0.00
2019-01-18T00:55:15.070Z,0.00
2019-01-18T00:56:15.059Z,0.00
2019-01-18T00:57:15.072Z,0.00
2019-01-18T00:58:15.036Z,0.00
2019-01-18T00:59:15.028Z,0.00
2019-01-18T01:00:15.015Z,0.00
2019-01-18T01:01:15.003Z,0.00
2019-01-18T01:02:15.018Z,0.00
2019-01-18T01:03:14.981Z,0.00
2019-01-18T01:04:14.970Z,0.00
2019-01-18T01:05:14.962Z,0.00
2019-01-18T01:06:14.948Z,0.00
2019-01-18T01:07:14.962Z,0.00
2019-01-18T01:08:14.929Z,0.00
2019-01-18T01:09:14.913Z,0.00
2019-01-18T01:10:14.906Z,0.00
2019-01-18T01:11:14.903Z,0.00
2019-01-18T01:12:14.905Z,0.00
2019-01-18T01:13:14.872Z,0.00
2019-01-18T01:14:14.860Z,0.00
2019-01-18T01:15:14.850Z,0.00
2019-01-18T01:16:14.836Z,0.00
2019-01-18T01:17:14.826Z,0.00
2019-01-18T01:18:14.842Z,0.00
2019-01-18T01:19:14.805Z,0.00
2019-01-18T01:20:14.791Z,0.00
2019-01-18T01:21:14.780Z,0.00
2019-01-18T01:22:14.771Z,0.00
2019-01-18T01:23:14.782Z,0.00
2019-01-18T01:24:14.747Z,0.00
2019-01-18T01:25:14.735Z,0.00
2019-01-18T01:26:14.725Z,0.00
2019-01-18T01:27:14.713Z,0.00
2019-01-18T01:28:14.728Z,0.00
2019-01-18T01:29:14.691Z,0.00
2019-01-18T01:30:14.682Z,0.00
2019-01-18T01:31:14.667Z,0.00
2019-01-18T01:32:14.657Z,0.00
2019-01-18T01:33:14.671Z,0.00
2019-01-18T01:34:14.637Z,0.00
2019-01-18T01:35:14.627Z,0.00
2019-01-18T01:36:14.612Z,0.00
2019-01-18T01:37:14.604Z,0.00
2019-01-18T01:38:15.300Z,0.00
2019-01-18T01:39:14.579Z,0.00
2019-01-18T01:40:14.568Z,0.00
2019-01-18T01:41:14.559Z,0.00
2019-01-18T01:42:14.546Z,0.00
2019-01-18T01:43:14.563Z,0.00
2019-01-18T01:44:14.523Z,0.00
2019-01-18T01:45:14.513Z,0.00
2019-01-18T01:46:14.503Z,0.00
2019-01-18T01:47:14.493Z,0.00
2019-01-18T01:48:14.505Z,0.00
2019-01-18T01:49:14.467Z,0.00
2019-01-18T01:50:14.458Z,0.00
2019-01-18T01:51:14.445Z,0.00
2019-01-18T01:52:14.435Z,0.00
2019-01-18T01:53:14.448Z,0.00
2019-01-18T01:54:14.413Z,0.00
2019-01-18T01:55:14.408Z,0.00
2019-01-18T01:56:14.390Z,0.00
2019-01-18T01:57:14.379Z,0.00
2019-01-18T01:58:14.393Z,0.00
2019-01-18T01:59:14.359Z,0.00
2019-01-18T02:00:14.342Z,0.00
2019-01-18T02:01:14.331Z,0.00
2019-01-18T02:02:14.320Z,0.00
2019-01-18T02:03:14.336Z,0.00
2019-01-18T02:04:14.299Z,0.00
2019-01-18T02:05:14.286Z,0.00
2019-01-18T02:06:14.275Z,0.00
2019-01-18T02:07:14.267Z,0.00
2019-01-18T02:08:14.279Z,0.00
2019-01-18T02:09:14.243Z,0.00
2019-01-18T02:10:14.232Z,0.00
2019-01-18T02:11:14.222Z,0.00
2019-01-18T02:12:14.219Z,0.00
2019-01-18T02:13:14.199Z,0.00
2019-01-18T02:14:14.210Z,0.00
2019-01-18T02:15:14.184Z,0.00
2019-01-18T02:16:14.164Z,0.00
2019-01-18T02:17:14.153Z,0.00
2019-01-18T02:18:14.143Z,0.00
2019-01-18T02:19:14.154Z,0.00
2019-01-18T02:20:14.121Z,0.00
2019-01-18T02:21:14.107Z,0.00
2019-01-18T02:22:14.096Z,0.00
2019-01-18T02:23:14.086Z,0.00
2019-01-18T02:24:14.099Z,0.00
2019-01-18T02:25:14.064Z,0.00
2019-01-18T02:26:14.052Z,0.00
2019-01-18T02:27:14.049Z,0.00
2019-01-18T02:28:14.029Z,0.00
2019-01-18T02:29:14.043Z,0.00
2019-01-18T02:30:14.010Z,0.00
2019-01-18T02:31:13.999Z,0.00
2019-01-18T02:32:13.986Z,0.00
2019-01-18T02:33:13.974Z,0.00
2019-01-18T02:34:14.014Z,0.00
2019-01-18T02:35:13.952Z,0.00
2019-01-18T02:36:13.941Z,0.00
2019-01-18T02:37:13.930Z,0.00
2019-01-18T02:38:13.919Z,0.00
2019-01-18T02:39:13.943Z,0.00
2019-01-18T02:40:13.897Z,0.00
2019-01-18T02:41:13.884Z,0.00
2019-01-18T02:42:13.873Z,0.00
2019-01-18T02:43:13.866Z,0.00
2019-01-18T02:44:13.878Z,0.00
2019-01-18T02:45:13.846Z,0.00
2019-01-18T02:46:13.829Z,0.00
2019-01-18T02:47:13.820Z,0.00
2019-01-18T02:48:13.806Z,0.00
2019-01-18T02:49:13.823Z,0.00
2019-01-18T02:50:13.784Z,0.00
2019-01-18T02:51:13.772Z,0.00
2019-01-18T02:52:13.762Z,0.00
2019-01-18T02:53:13.750Z,0.00
2019-01-18T02:54:13.764Z,0.00
2019-01-18T02:55:13.727Z,0.00
2019-01-18T02:56:13.718Z,0.00
2019-01-18T02:57:13.706Z,0.00
2019-01-18T02:58:13.696Z,0.00
2019-01-18T02:59:13.714Z,0.00
2019-01-18T03:00:13.675Z,0.00
2019-01-18T03:01:13.663Z,0.00
2019-01-18T03:02:13.650Z,0.00
2019-01-18T03:03:13.638Z,0.00
2019-01-18T03:04:13.652Z,0.00
2019-01-18T03:05:13.617Z,0.00
2019-01-18T03:06:13.605Z,0.00
2019-01-18T03:07:13.599Z,0.00
2019-01-18T03:08:13.584Z,0.00
2019-01-18T03:09:13.573Z,0.00
2019-01-18T03:10:13.584Z,0.00
2019-01-18T03:11:13.549Z,0.00
2019-01-18T03:12:13.540Z,0.00
2019-01-18T03:13:13.539Z,0.00
2019-01-18T03:14:13.519Z,0.00
2019-01-18T03:15:13.530Z,0.00
2019-01-18T03:16:13.497Z,0.00
2019-01-18T03:17:13.486Z,0.00
2019-01-18T03:18:13.473Z,0.00
2019-01-18T03:19:13.459Z,0.00
2019-01-18T03:20:13.482Z,0.00
2019-01-18T03:21:13.439Z,0.00
2019-01-18T03:22:13.429Z,0.00
2019-01-18T03:23:13.416Z,0.00
2019-01-18T03:24:13.404Z,0.00
2019-01-18T03:25:13.423Z,0.00
2019-01-18T03:26:13.385Z,0.00
2019-01-18T03:27:13.373Z,0.00
2019-01-18T03:28:13.364Z,0.00
2019-01-18T03:29:13.351Z,0.00
2019-01-18T03:30:18.939Z,0.00
2019-01-18T03:31:14.329Z,0.00
2019-01-18T03:32:13.321Z,0.00
2019-01-18T03:33:13.308Z,0.00
2019-01-18T03:34:13.298Z,0.00
2019-01-18T03:35:13.310Z,0.00
2019-01-18T03:36:13.273Z,0.00
2019-01-18T03:37:13.263Z,0.00
2019-01-18T03:38:13.250Z,0.00
2019-01-18T03:39:13.239Z,0.00
2019-01-18T03:40:13.253Z,0.00
2019-01-18T03:41:13.220Z,0.00
2019-01-18T03:42:13.212Z,0.00
2019-01-18T03:43:13.196Z,0.00
2019-01-18T03:44:13.185Z,0.00
2019-01-18T03:45:13.199Z,0.00
2019-01-18T03:46:13.167Z,0.00
2019-01-18T03:47:13.151Z,0.00
2019-01-18T03:48:13.143Z,0.00
2019-01-18T03:49:13.130Z,0.00
2019-01-18T03:50:13.143Z,0.00
2019-01-18T03:51:13.107Z,0.00
2019-01-18T03:52:13.097Z,0.00
2019-01-18T03:53:13.086Z,0.00
2019-01-18T03:54:13.073Z,0.00
2019-01-18T03:55:13.085Z,0.00
2019-01-18T03:56:13.053Z,0.00
2019-01-18T03:57:13.039Z,0.00
2019-01-18T03:58:13.028Z,0.00
2019-01-18T03:59:13.026Z,0.00
2019-01-18T04:00:13.032Z,0.00
2019-01-18T04:01:12.997Z,0.00
2019-01-18T04:02:12.988Z,0.00
2019-01-18T04:03:12.974Z,0.00
2019-01-18T04:04:12.965Z,0.00
2019-01-18T04:05:12.957Z,0.00
2019-01-18T04:06:12.964Z,0.00
2019-01-18T04:07:12.928Z,0.00
2019-01-18T04:08:12.917Z,0.00
2019-01-18T04:09:12.906Z,0.00
2019-01-18T04:10:12.903Z,0.00
2019-01-18T04:11:12.912Z,0.00
2019-01-18T04:12:12.879Z,0.00
2019-01-18T04:13:12.860Z,0.00
2019-01-18T04:14:12.860Z,0.00
2019-01-18T04:15:12.838Z,0.00
2019-01-18T04:16:12.853Z,0.00
2019-01-18T04:17:12.819Z,0.00
2019-01-18T04:18:12.809Z,0.00
2019-01-18T04:19:12.797Z,0.00
2019-01-18T04:20:12.785Z,0.00
2019-01-18T04:21:12.796Z,0.00
2019-01-18T04:22:12.763Z,0.00
2019-01-18T04:23:12.750Z,0.00
2019-01-18T04:24:12.740Z,0.00
2019-01-18T04:25:12.728Z,0.00
2019-01-18T04:26:12.742Z,0.00
2019-01-18T04:27:12.706Z,0.00
2019-01-18T04:28:12.696Z,0.00
2019-01-18T04:29:12.683Z,0.00
2019-01-18T04:30:12.672Z,0.00
2019-01-18T04:31:12.689Z,0.00
2019-01-18T04:32:12.650Z,0.00
2019-01-18T04:33:12.639Z,0.00
2019-01-18T04:34:12.631Z,0.00
2019-01-18T04:35:12.637Z,0.00
2019-01-18T04:36:12.629Z,0.00
2019-01-18T04:37:12.594Z,0.00
2019-01-18T04:38:12.585Z,0.00
2019-01-18T04:39:12.571Z,0.00
2019-01-18T04:40:12.560Z,0.00
2019-01-18T04:41:12.574Z,0.00
2019-01-18T04:42:12.537Z,0.00
2019-01-18T04:43:12.528Z,0.00
2019-01-18T04:44:12.515Z,0.00
2019-01-18T04:45:12.504Z,0.00
2019-01-18T04:46:12.519Z,0.00
2019-01-18T04:47:12.482Z,0.00
2019-01-18T04:48:12.471Z,0.00
2019-01-18T04:49:12.464Z,0.00
2019-01-18T04:50:12.500Z,0.00
2019-01-18T04:51:12.461Z,0.00
2019-01-18T04:52:12.426Z,0.00
2019-01-18T04:53:12.415Z,0.00
2019-01-18T04:54:12.404Z,0.00
2019-01-18T04:55:12.406Z,0.00
2019-01-18T04:56:12.383Z,0.00
2019-01-18T04:57:12.393Z,0.00
2019-01-18T04:58:12.359Z,0.00
2019-01-18T04:59:12.351Z,0.00
2019-01-18T05:00:12.336Z,0.00
2019-01-18T05:01:12.327Z,0.00
2019-01-18T05:02:12.339Z,0.00
2019-01-18T05:03:12.303Z,0.00
2019-01-18T05:04:12.296Z,0.00
2019-01-18T05:05:12.280Z,0.00
2019-01-18T05:06:12.271Z,0.00
2019-01-18T05:07:12.284Z,0.00
2019-01-18T05:08:12.248Z,0.00
2019-01-18T05:09:12.236Z,0.00
2019-01-18T05:10:12.227Z,0.00
2019-01-18T05:11:12.223Z,0.00
2019-01-18T05:12:12.234Z,0.00
2019-01-18T05:13:12.193Z,0.00
2019-01-18T05:14:12.180Z,0.00
2019-01-18T05:15:12.177Z,0.00
2019-01-18T05:16:12.165Z,0.00
2019-01-18T05:17:12.150Z,0.00
2019-01-18T05:18:12.164Z,0.00
2019-01-18T05:19:12.128Z,0.00
2019-01-18T05:20:12.114Z,0.00
2019-01-18T05:21:12.102Z,0.00
2019-01-18T05:22:12.103Z,0.00
2019-01-18T05:23:12.105Z,0.00
2019-01-18T05:24:12.072Z,0.00
2019-01-18T05:25:12.060Z,0.00
2019-01-18T05:26:12.048Z,0.00
2019-01-18T05:27:12.040Z,0.00
2019-01-18T05:28:12.068Z,0.00
2019-01-18T05:29:12.014Z,0.00
2019-01-18T05:30:12.001Z,0.00
2019-01-18T05:31:11.994Z,0.00
2019-01-18T05:32:11.981Z,0.00
2019-01-18T05:33:11.993Z,0.00
2019-01-18T05:34:11.960Z,0.00
2019-01-18T05:35:11.945Z,0.00
2019-01-18T05:36:11.935Z,0.00
2019-01-18T05:37:11.928Z,0.00
2019-01-18T05:38:11.938Z,0.00
2019-01-18T05:39:11.902Z,0.00
2019-01-18T05:40:11.894Z,0.00
2019-01-18T05:41:11.879Z,0.00
2019-01-18T05:42:11.882Z,0.00
2019-01-18T05:43:11.882Z,0.00
2019-01-18T05:44:11.846Z,0.00
2019-01-18T05:45:11.835Z,0.00
2019-01-18T05:46:11.825Z,0.00
2019-01-18T05:47:11.813Z,0.00
2019-01-18T05:48:11.827Z,0.00
2019-01-18T05:49:11.791Z,0.00
2019-01-18T05:50:11.783Z,0.00
2019-01-18T05:51:11.770Z,0.00
2019-01-18T05:52:11.757Z,0.00
2019-01-18T05:53:11.770Z,0.00
2019-01-18T05:54:11.735Z,0.00
2019-01-18T05:55:11.723Z,0.00
2019-01-18T05:56:11.713Z,0.00
2019-01-18T05:57:11.702Z,0.00
2019-01-18T05:58:11.715Z,0.00
2019-01-18T05:59:11.681Z,0.00
2019-01-18T06:00:11.667Z,0.00
2019-01-18T06:01:11.655Z,0.00
2019-01-18T06:02:11.645Z,0.00
2019-01-18T06:03:11.657Z,0.00
2019-01-18T06:04:11.623Z,0.00
2019-01-18T06:05:11.611Z,0.00
2019-01-18T06:06:11.599Z,0.00
2019-01-18T06:07:11.590Z,0.00
2019-01-18T06:08:11.582Z,0.00
2019-01-18T06:09:11.591Z,0.00
2019-01-18T06:10:11.555Z,0.00
2019-01-18T06:11:11.544Z,0.00
2019-01-18T06:12:11.537Z,0.00
2019-01-18T06:13:11.525Z,0.00
2019-01-18T06:14:11.540Z,0.00
2019-01-18T06:15:11.499Z,0.00
2019-01-18T06:16:11.490Z,0.00
2019-01-18T06:17:11.482Z,0.00
2019-01-18T06:18:11.469Z,0.00
2019-01-18T06:19:11.478Z,0.00
2019-01-18T06:20:11.444Z,0.00
2019-01-18T06:21:11.434Z,0.00
2019-01-18T06:22:11.421Z,0.00
2019-01-18T06:23:11.413Z,0.00
2019-01-18T06:24:11.426Z,0.00
2019-01-18T06:25:11.392Z,0.00
2019-01-18T06:26:11.378Z,0.00
2019-01-18T06:27:11.375Z,0.00
2019-01-18T06:28:11.354Z,0.00
2019-01-18T06:29:11.368Z,0.00
2019-01-18T06:30:11.333Z,0.00
2019-01-18T06:31:11.322Z,0.00
2019-01-18T06:32:11.310Z,0.00
2019-01-18T06:33:11.298Z,0.00
2019-01-18T06:34:11.314Z,0.00
2019-01-18T06:35:11.290Z,0.00
2019-01-18T06:36:11.267Z,0.00
2019-01-18T06:37:11.255Z,0.00
2019-01-18T06:38:11.243Z,0.00
2019-01-18T06:39:11.256Z,0.00
2019-01-18T06:40:11.222Z,0.00
2019-01-18T06:41:11.211Z,0.00
2019-01-18T06:42:11.199Z,0.00
2019-01-18T06:43:11.188Z,0.00
2019-01-18T06:44:11.201Z,0.00
2019-01-18T06:45:11.166Z,0.00
2019-01-18T06:46:11.154Z,0.00
2019-01-18T06:47:11.143Z,0.00
2019-01-18T06:48:11.131Z,0.00
2019-01-18T06:49:11.144Z,0.00
2019-01-18T06:50:11.109Z,0.00
2019-01-18T06:51:11.098Z,0.00
2019-01-18T06:52:11.088Z,0.00
2019-01-18T06:53:11.076Z,0.00
2019-01-18T06:54:11.066Z,0.00
2019-01-18T06:55:11.079Z,0.00
2019-01-18T06:56:11.045Z,0.00
2019-01-18T06:57:11.031Z,0.00
2019-01-18T06:58:11.021Z,0.00
2019-01-18T06:59:11.010Z,0.00
2019-01-18T07:00:11.023Z,4.00
2019-01-18T07:01:10.989Z,0.00
2019-01-18T07:02:10.976Z,0.00
2019-01-18T07:03:10.965Z,4.00
2019-01-18T07:04:10.954Z,4.00
2019-01-18T07:05:10.966Z,0.00
2019-01-18T07:06:10.932Z,4.00
2019-01-18T07:07:10.922Z,0.00
2019-01-18T07:08:10.909Z,4.00
2019-01-18T07:09:10.902Z,4.00
2019-01-18T07:10:10.917Z,8.00
2019-01-18T07:11:10.876Z,4.00
2019-01-18T07:12:10.867Z,4.00
2019-01-18T07:13:10.854Z,4.00
2019-01-18T07:14:10.860Z,4.00
2019-01-18T07:15:10.857Z,8.00
2019-01-18T07:16:10.820Z,8.00
2019-01-18T07:17:10.809Z,8.00
2019-01-18T07:18:10.798Z,8.00
2019-01-18T07:19:10.787Z,8.00
2019-01-18T07:20:10.800Z,12.00
2019-01-18T07:21:10.764Z,12.00
2019-01-18T07:22:10.762Z,12.00
2019-01-18T07:23:10.742Z,16.00
2019-01-18T07:24:10.733Z,12.00
2019-01-18T07:25:10.745Z,16.00
2019-01-18T07:26:10.709Z,16.00
2019-01-18T07:27:10.698Z,16.00
2019-01-18T07:28:10.688Z,20.00
2019-01-18T07:29:10.675Z,24.00
2019-01-18T07:30:10.689Z,24.00
2019-01-18T07:31:15.093Z,24.00
2019-01-18T07:32:10.647Z,28.00
2019-01-18T07:33:10.631Z,32.00
2019-01-18T07:34:10.625Z,32.00
2019-01-18T07:35:10.633Z,32.00
2019-01-18T07:36:10.598Z,32.00
2019-01-18T07:37:10.588Z,36.00
2019-01-18T07:38:10.575Z,36.00
2019-01-18T07:39:10.564Z,40.00
2019-01-18T07:40:10.578Z,40.00
2019-01-18T07:41:10.543Z,44.00
2019-01-18T07:42:10.531Z,48.00
2019-01-18T07:43:10.519Z,48.00
2019-01-18T07:44:10.509Z,48.00
2019-01-18T07:45:10.524Z,52.00
2019-01-18T07:46:10.489Z,52.00
2019-01-18T07:47:10.480Z,56.00
2019-01-18T07:48:10.464Z,60.00
2019-01-18T07:49:10.458Z,68.00
2019-01-18T07:50:10.449Z,72.00
2019-01-18T07:51:10.455Z,76.00
2019-01-18T07:52:10.420Z,84.00
2019-01-18T07:53:10.417Z,92.00
2019-01-18T07:54:10.397Z,96.00
2019-01-18T07:55:10.402Z,108.00
2019-01-18T07:56:10.399Z,116.00
2019-01-18T07:57:10.364Z,120.00
2019-01-18T07:58:10.356Z,128.00
2019-01-18T07:59:10.341Z,136.00
2019-01-18T08:00:10.332Z,148.00
2019-01-18T08:01:10.345Z,156.00
2019-01-18T08:02:10.311Z,156.00
2019-01-18T08:03:10.303Z,160.00
2019-01-18T08:04:10.366Z,156.00
2019-01-18T08:05:10.281Z,164.00
2019-01-18T08:06:10.292Z,172.00
2019-01-18T08:07:10.254Z,180.00
2019-01-18T08:08:10.243Z,180.00
2019-01-18T08:09:10.235Z,180.00
2019-01-18T08:10:10.220Z,176.00
2019-01-18T08:11:10.234Z,180.00
2019-01-18T08:12:10.198Z,184.00
2019-01-18T08:13:10.190Z,184.00
2019-01-18T08:14:10.178Z,188.00
2019-01-18T08:15:10.165Z,188.00
2019-01-18T08:16:10.190Z,196.00
2019-01-18T08:17:10.144Z,212.00
2019-01-18T08:18:10.150Z,216.00
2019-01-18T08:19:10.121Z,208.00
2019-01-18T08:20:10.109Z,208.00
2019-01-18T08:21:10.120Z,208.00
2019-01-18T08:22:10.087Z,212.00
2019-01-18T08:23:10.076Z,220.00
2019-01-18T08:24:10.147Z,224.00
2019-01-18T08:25:10.054Z,232.00
2019-01-18T08:26:10.070Z,240.00
2019-01-18T08:27:10.030Z,244.00
2019-01-18T08:28:10.022Z,232.00
2019-01-18T08:29:10.007Z,232.00
2019-01-18T08:30:09.999Z,232.00
2019-01-18T08:31:10.026Z,244.00
2019-01-18T08:32:09.978Z,244.00
2019-01-18T08:33:10.009Z,248.00
2019-01-18T08:34:09.953Z,264.00
2019-01-18T08:35:09.947Z,268.00
2019-01-18T08:36:09.953Z,280.00
2019-01-18T08:37:09.946Z,292.00
2019-01-18T08:38:09.908Z,300.00
2019-01-18T08:39:09.896Z,316.00
2019-01-18T08:40:09.887Z,332.00
2019-01-18T08:41:09.877Z,352.00
2019-01-18T08:42:09.891Z,364.00
2019-01-18T08:43:09.852Z,372.00
2019-01-18T08:44:09.841Z,368.00
2019-01-18T08:45:09.836Z,372.00
2019-01-18T08:46:09.827Z,368.00
2019-01-18T08:47:09.835Z,360.00
2019-01-18T08:48:09.797Z,356.00
2019-01-18T08:49:09.786Z,348.00
2019-01-18T08:50:09.777Z,344.00
2019-01-18T08:51:09.775Z,348.00
2019-01-18T08:52:09.776Z,352.00
2019-01-18T08:53:09.745Z,364.00
2019-01-18T08:54:09.731Z,376.00
2019-01-18T08:55:09.741Z,396.00
2019-01-18T08:56:09.707Z,412.00
2019-01-18T08:57:09.725Z,428.00
2019-01-18T08:58:09.696Z,440.00
2019-01-18T08:59:09.678Z,440.00
2019-01-18T09:00:09.663Z,436.00
2019-01-18T09:01:09.655Z,432.00
2019-01-18T09:02:09.665Z,428.00
2019-01-18T09:03:09.630Z,416.00
2019-01-18T09:04:09.620Z,396.00
2019-01-18T09:05:09.607Z,384.00
2019-01-18T09:06:09.597Z,392.00
2019-01-18T09:07:09.611Z,404.00
2019-01-18T09:08:09.574Z,416.00
2019-01-18T09:09:09.562Z,432.00
2019-01-18T09:10:09.552Z,436.00
2019-01-18T09:11:09.541Z,440.00
2019-01-18T09:12:09.555Z,452.00
2019-01-18T09:13:09.517Z,468.00
2019-01-18T09:14:09.509Z,472.00
2019-01-18T09:15:09.498Z,468.00
2019-01-18T09:16:09.483Z,460.00
2019-01-18T09:17:09.505Z,452.00
2019-01-18T09:18:09.462Z,448.00
2019-01-18T09:19:09.452Z,456.00
2019-01-18T09:20:09.440Z,480.00
2019-01-18T09:21:09.431Z,500.00
2019-01-18T09:22:09.441Z,528.00
2019-01-18T09:23:09.412Z,564.00
2019-01-18T09:24:09.397Z,600.00
2019-01-18T09:25:09.384Z,628.00
2019-01-18T09:26:09.374Z,636.00
2019-01-18T09:27:09.378Z,640.00
2019-01-18T09:28:09.419Z,636.00
2019-01-18T09:29:10.305Z,648.00
2019-01-18T09:30:09.331Z,676.00
2019-01-18T09:31:09.322Z,688.00
2019-01-18T09:32:09.307Z,676.00
2019-01-18T09:33:09.319Z,648.00
2019-01-18T09:34:09.288Z,616.00
2019-01-18T09:35:09.275Z,576.00
2019-01-18T09:36:09.264Z,564.00
2019-01-18T09:37:09.262Z,576.00
2019-01-18T09:38:09.267Z,600.00
2019-01-18T09:39:09.238Z,620.00
2019-01-18T09:40:09.223Z,628.00
2019-01-18T09:41:09.206Z,636.00
2019-01-18T09:42:09.194Z,644.00
2019-01-18T09:43:09.222Z,640.00
2019-01-18T09:44:09.174Z,624.00
2019-01-18T09:45:09.165Z,620.00
2019-01-18T09:46:09.153Z,624.00
2019-01-18T09:47:09.138Z,644.00
2019-01-18T09:48:09.153Z,684.00
2019-01-18T09:49:09.115Z,724.00
2019-01-18T09:50:09.107Z,744.00
2019-01-18T09:51:09.099Z,748.00
2019-01-18T09:52:09.086Z,740.00
2019-01-18T09:53:09.098Z,732.00
2019-01-18T09:54:09.063Z,732.00
2019-01-18T09:55:09.052Z,732.00
2019-01-18T09:56:09.037Z,740.00
2019-01-18T09:57:09.028Z,752.00
2019-01-18T09:58:09.043Z,764.00
2019-01-18T09:59:09.005Z,776.00
2019-01-18T10:00:09.001Z,776.00
2019-01-18T10:01:08.982Z,760.00
2019-01-18T10:02:08.971Z,740.00
2019-01-18T10:03:08.982Z,724.00
2019-01-18T10:04:08.951Z,724.00
2019-01-18T10:05:08.942Z,740.00
2019-01-18T10:06:08.925Z,736.00
2019-01-18T10:07:08.921Z,732.00
2019-01-18T10:08:09.847Z,736.00
2019-01-18T10:09:08.894Z,736.00
2019-01-18T10:10:08.881Z,728.00
2019-01-18T10:11:08.876Z,744.00
2019-01-18T10:12:08.865Z,748.00
2019-01-18T10:13:08.872Z,744.00
2019-01-18T10:14:08.843Z,732.00
2019-01-18T10:15:08.827Z,728.00
2019-01-18T10:16:08.816Z,728.00
2019-01-18T10:17:08.805Z,732.00
2019-01-18T10:18:08.796Z,736.00
2019-01-18T10:19:08.805Z,740.00
2019-01-18T10:20:08.796Z,740.00
2019-01-18T10:21:08.758Z,732.00
2019-01-18T10:22:08.747Z,716.00
2019-01-18T10:23:08.737Z,712.00
2019-01-18T10:24:08.749Z,704.00
2019-01-18T10:25:08.713Z,708.00
2019-01-18T10:26:08.704Z,720.00
2019-01-18T10:27:08.690Z,736.00
2019-01-18T10:28:08.682Z,740.00
2019-01-18T10:29:08.691Z,740.00
2019-01-18T10:30:08.658Z,744.00
2019-01-18T10:31:08.648Z,764.00
2019-01-18T10:32:08.635Z,800.00
2019-01-18T10:33:08.625Z,832.00
2019-01-18T10:34:08.638Z,844.00
2019-01-18T10:35:08.602Z,852.00
2019-01-18T10:36:08.591Z,824.00
2019-01-18T10:37:08.582Z,808.00
2019-01-18T10:38:08.576Z,812.00
2019-01-18T10:39:08.581Z,828.00
2019-01-18T10:40:08.547Z,848.00
2019-01-18T10:41:08.537Z,860.00
2019-01-18T10:42:08.523Z,852.00
2019-01-18T10:43:08.588Z,820.00
2019-01-18T10:44:08.524Z,788.00
2019-01-18T10:45:08.491Z,744.00
2019-01-18T10:46:08.480Z,700.00
2019-01-18T10:47:08.468Z,668.00
2019-01-18T10:48:08.601Z,664.00
2019-01-18T10:49:08.471Z,684.00
2019-01-18T10:50:08.434Z,716.00
2019-01-18T10:51:08.423Z,748.00
2019-01-18T10:52:08.411Z,792.00
2019-01-18T10:53:08.401Z,860.00
2019-01-18T10:54:08.412Z,924.00
2019-01-18T10:55:08.378Z,984.00
2019-01-18T10:56:08.367Z,1036.00
2019-01-18T10:57:08.358Z,1080.00
2019-01-18T10:58:08.345Z,1108.00
2019-01-18T10:59:08.358Z,1132.00
2019-01-18T11:00:08.324Z,1120.00
2019-01-18T11:01:08.314Z,1100.00
2019-01-18T11:02:08.299Z,1104.00
2019-01-18T11:03:09.109Z,1128.00
2019-01-18T11:04:08.301Z,1088.00
2019-01-18T11:05:08.265Z,1000.00
2019-01-18T11:06:08.254Z,912.00
2019-01-18T11:07:08.246Z,848.00
2019-01-18T11:08:08.232Z,808.00
2019-01-18T11:09:08.244Z,780.00
2019-01-18T11:10:08.212Z,752.00
2019-01-18T11:11:08.198Z,736.00
2019-01-18T11:12:08.186Z,716.00
2019-01-18T11:13:08.177Z,696.00
2019-01-18T11:14:08.167Z,672.00
2019-01-18T11:15:08.178Z,648.00
2019-01-18T11:16:08.142Z,640.00
2019-01-18T11:17:08.132Z,636.00
2019-01-18T11:18:08.120Z,628.00
2019-01-18T11:19:08.110Z,612.00
2019-01-18T11:20:08.122Z,604.00
2019-01-18T11:21:08.085Z,608.00
2019-01-18T11:22:08.075Z,616.00
2019-01-18T11:23:08.065Z,600.00
2019-01-18T11:24:08.076Z,584.00
2019-01-18T11:25:08.166Z,588.00
2019-01-18T11:26:08.030Z,584.00
2019-01-18T11:27:08.018Z,592.00
2019-01-18T11:28:08.008Z,584.00
2019-01-18T11:29:07.996Z,568.00
2019-01-18T11:30:08.011Z,572.00
2019-01-18T11:31:07.979Z,592.00
2019-01-18T11:32:13.591Z,592.00
2019-01-18T11:33:08.954Z,588.00
2019-01-18T11:34:07.940Z,592.00
2019-01-18T11:35:07.954Z,588.00
2019-01-18T11:36:07.917Z,584.00
2019-01-18T11:37:07.906Z,580.00
2019-01-18T11:38:07.911Z,584.00
2019-01-18T11:39:07.883Z,588.00
2019-01-18T11:40:07.899Z,600.00
2019-01-18T11:41:07.861Z,612.00
2019-01-18T11:42:07.849Z,628.00
2019-01-18T11:43:07.839Z,648.00
2019-01-18T11:44:07.826Z,648.00
2019-01-18T11:45:07.842Z,644.00
2019-01-18T11:46:07.805Z,636.00
2019-01-18T11:47:07.795Z,636.00
2019-01-18T11:48:07.783Z,636.00
2019-01-18T11:49:07.774Z,640.00
2019-01-18T11:50:07.785Z,648.00
2019-01-18T11:51:07.749Z,648.00
2019-01-18T11:52:07.746Z,660.00
2019-01-18T11:53:07.726Z,672.00
2019-01-18T11:54:07.715Z,688.00
2019-01-18T11:55:07.727Z,692.00
2019-01-18T11:56:07.691Z,680.00
2019-01-18T11:57:07.682Z,680.00
2019-01-18T11:58:07.670Z,680.00
2019-01-18T11:59:07.658Z,688.00
2019-01-18T12:00:07.672Z,696.00
2019-01-18T12:01:07.635Z,700.00
2019-01-18T12:02:07.625Z,700.00
2019-01-18T12:03:07.614Z,696.00
2019-01-18T12:04:07.602Z,688.00
2019-01-18T12:05:07.593Z,688.00
2019-01-18T12:06:07.603Z,696.00
2019-01-18T12:07:07.568Z,708.00
2019-01-18T12:08:07.558Z,720.00
2019-01-18T12:09:07.551Z,732.00
2019-01-18T12:10:07.537Z,724.00
2019-01-18T12:11:07.552Z,692.00
2019-01-18T12:12:07.512Z,660.00
2019-01-18T12:13:07.500Z,632.00
2019-01-18T12:14:07.491Z,616.00
2019-01-18T12:15:07.479Z,608.00
2019-01-18T12:16:07.501Z,604.00
2019-01-18T12:17:07.456Z,608.00
2019-01-18T12:18:07.446Z,608.00
2019-01-18T12:19:07.436Z,616.00
2019-01-18T12:20:07.429Z,624.00
2019-01-18T12:21:07.436Z,628.00
2019-01-18T12:22:07.401Z,620.00
2019-01-18T12:23:07.389Z,616.00
2019-01-18T12:24:07.377Z,612.00
2019-01-18T12:25:07.367Z,604.00
2019-01-18T12:26:07.378Z,600.00
2019-01-18T12:27:07.370Z,596.00
2019-01-18T12:28:07.333Z,588.00
2019-01-18T12:29:07.326Z,580.00
2019-01-18T12:30:07.311Z,568.00
2019-01-18T12:31:07.323Z,560.00
2019-01-18T12:32:07.289Z,556.00
2019-01-18T12:33:07.277Z,552.00
2019-01-18T12:34:07.266Z,548.00
2019-01-18T12:35:07.256Z,544.00
2019-01-18T12:36:07.269Z,544.00
2019-01-18T12:37:07.235Z,544.00
2019-01-18T12:38:07.235Z,544.00
2019-01-18T12:39:07.211Z,540.00
2019-01-18T12:40:07.200Z,544.00
2019-01-18T12:41:07.211Z,544.00
2019-01-18T12:42:07.180Z,540.00
2019-01-18T12:43:07.166Z,536.00
2019-01-18T12:44:07.156Z,532.00
2019-01-18T12:45:07.145Z,532.00
2019-01-18T12:46:07.161Z,532.00
2019-01-18T12:47:07.122Z,536.00
2019-01-18T12:48:07.112Z,536.00
2019-01-18T12:49:07.101Z,532.00
2019-01-18T12:50:07.089Z,528.00
2019-01-18T12:51:07.211Z,524.00
2019-01-18T12:52:07.066Z,520.00
2019-01-18T12:53:07.053Z,516.00
2019-01-18T12:54:07.044Z,508.00
2019-01-18T12:55:07.033Z,500.00
2019-01-18T12:56:07.022Z,496.00